Time;durP1;ratioP1;P1;durP2;ratioP2;P2;SDS_P1;SDS_P2;PMS_P1;PMS_P2;Temp;Humidity;BMP_temperature;BMP_pressure;BME280_temperature;BME280_humidity;BME280_pressure;Samples;Min_cycle;Max_cycle;Signal;HPM_P1;HPM_P2
2021/08/11 00:02:20;;;;;;;6.57;3.90;;;;;;;14.60;100.00;95305.22;5015364;28;20041;-61
2021/08/11 00:04:46;;;;;;;6.80;3.28;;;;;;;14.59;100.00;95304.41;5015353;28;20084;-60
2021/08/11 00:07:19;;;;;;;5.10;3.20;;;;;;;14.57;100.00;95308.50;5015242;28;20033;-60
2021/08/11 00:09:44;;;;;;;4.75;3.47;;;;;;;14.54;100.00;95304.44;5015275;28;20483;-60
2021/08/11 00:12:10;;;;;;;4.68;3.55;;;;;;;14.48;100.00;95311.78;5015279;28;20029;-61
2021/08/11 00:14:44;;;;;;;6.18;3.33;;;;;;;14.44;100.00;95309.94;5014024;28;20030;-61
2021/08/11 00:17:10;;;;;;;5.40;3.70;;;;;;;14.40;100.00;95312.38;5015212;28;20025;-61
2021/08/11 00:19:38;;;;;;;6.45;3.67;;;;;;;14.37;100.00;95306.75;5019475;28;20034;-61
2021/08/11 00:22:24;;;;;;;7.10;3.83;;;;;;;14.36;100.00;95307.84;5015115;28;20380;-60
2021/08/11 00:24:57;;;;;;;4.00;3.60;;;;;;;14.37;100.00;95304.84;5014973;28;20056;-61
2021/08/11 00:27:23;;;;;;;7.35;3.70;;;;;;;14.36;100.00;95305.94;5014893;28;20041;-61
2021/08/11 00:29:48;;;;;;;4.32;3.50;;;;;;;14.36;100.00;95307.84;5014877;28;20379;-61
2021/08/11 00:32:16;;;;;;;8.55;3.25;;;;;;;14.35;100.00;95303.53;5014891;28;20452;-60
2021/08/11 00:34:42;;;;;;;6.00;3.67;;;;;;;14.28;100.00;95298.47;5014768;28;20026;-61
2021/08/11 00:37:08;;;;;;;7.53;3.80;;;;;;;14.28;100.00;95295.78;5014917;28;20084;-60
2021/08/11 00:39:33;;;;;;;6.07;3.90;;;;;;;14.27;100.00;95296.06;5013551;28;20117;-60
2021/08/11 00:42:15;;;;;;;5.15;3.70;;;;;;;14.25;100.00;95296.34;5014696;28;20053;-60
2021/08/11 00:44:46;;;;;;;8.88;3.72;;;;;;;14.25;100.00;95298.25;5013216;28;20434;-60
2021/08/11 00:47:18;;;;;;;4.88;3.58;;;;;;;14.25;100.00;95290.16;5014537;28;20026;-60
2021/08/11 00:49:44;;;;;;;6.10;3.63;;;;;;;14.23;100.00;95292.34;5014609;28;20049;-60
2021/08/11 00:54:58;;;;;;;7.10;3.83;;;;;;;14.16;100.00;95288.06;5014382;28;20560;-60
2021/08/11 00:57:27;;;;;;;8.23;3.50;;;;;;;14.17;100.00;95291.56;5014459;28;20065;-60
2021/08/11 00:59:55;;;;;;;5.05;3.75;;;;;;;14.23;100.00;95273.47;5014381;28;20097;-60
2021/08/11 01:02:29;;;;;;;5.07;3.75;;;;;;;14.25;100.00;95280.19;4997120;28;20068;-60
2021/08/11 01:05:00;;;;;;;6.30;3.78;;;;;;;14.24;100.00;95280.47;5014189;28;20484;-60
2021/08/11 01:07:29;;;;;;;7.35;3.70;;;;;;;14.21;100.00;95274.53;5012816;28;20148;-60
2021/08/11 01:10:14;;;;;;;5.15;4.07;;;;;;;14.23;100.00;95274.28;5012973;28;20030;-60
2021/08/11 01:12:48;;;;;;;4.68;3.70;;;;;;;14.21;100.00;95269.16;5014144;28;20026;-60
2021/08/11 01:15:14;;;;;;;4.97;3.35;;;;;;;14.16;100.00;95268.41;5014125;28;20049;-60
2021/08/11 01:17:41;;;;;;;11.45;3.72;;;;;;;14.14;100.00;95268.69;5012750;28;20104;-60
2021/08/11 01:20:16;;;;;;;5.30;3.75;;;;;;;14.12;100.00;95265.47;5019504;28;20038;-60
2021/08/11 01:22:49;;;;;;;4.80;3.50;;;;;;;14.12;100.00;95267.38;5013533;28;20096;-60
2021/08/11 01:25:35;;;;;;;6.05;3.65;;;;;;;14.08;100.00;95264.41;5013952;28;20042;-60
2021/08/11 01:28:38;;;;;;;6.00;3.70;;;;;;;14.04;100.00;95262.59;5012570;28;20061;-60
2021/08/11 01:31:18;;;;;;;5.15;3.85;;;;;;;14.00;100.00;95256.13;5004135;28;20034;-60
2021/08/11 01:34:09;;;;;;;5.50;3.70;;;;;;;14.03;100.00;95258.28;5013668;28;20030;-60
2021/08/11 01:36:55;;;;;;;5.63;3.45;;;;;;;14.04;100.00;95251.81;5013657;28;20025;-60
2021/08/11 01:39:35;;;;;;;6.35;4.38;;;;;;;14.03;100.00;95251.00;5013615;28;20026;-60
2021/08/11 01:42:17;;;;;;;5.75;3.60;;;;;;;14.06;100.00;95244.25;5013700;28;20387;-60
2021/08/11 01:44:52;;;;;;;4.68;3.60;;;;;;;14.09;100.00;95249.06;5013460;28;20025;-60
2021/08/11 01:47:36;;;;;;;10.60;4.15;;;;;;;14.09;100.00;95244.47;5012250;28;20038;-60
2021/08/11 01:50:15;;;;;;;7.00;3.53;;;;;;;14.09;100.00;95232.91;5012212;28;20484;-60
2021/08/11 01:52:46;;;;;;;6.15;3.40;;;;;;;14.04;100.00;95233.75;5013303;28;20030;-60
2021/08/11 01:55:17;;;;;;;6.05;3.42;;;;;;;14.04;100.00;95233.75;5012150;28;20112;-60
2021/08/11 01:57:48;;;;;;;6.03;3.80;;;;;;;14.03;100.00;95232.16;5011482;28;20026;-60
2021/08/11 02:00:14;;;;;;;5.93;3.92;;;;;;;14.02;100.00;95233.25;5013395;28;20026;-60
2021/08/11 02:02:46;;;;;;;5.85;3.75;;;;;;;14.04;100.00;95227.56;5012011;28;20018;-60
2021/08/11 02:05:12;;;;;;;4.00;3.58;;;;;;;14.03;100.00;95229.47;5013197;28;20434;-60
2021/08/11 02:07:39;;;;;;;5.32;4.07;;;;;;;14.01;100.00;95231.63;5013114;28;20033;-60
2021/08/11 02:10:07;;;;;;;8.35;3.90;;;;;;;14.00;100.00;95231.88;5011821;28;20116;-60
2021/08/11 02:12:33;;;;;;;6.93;3.97;;;;;;;13.97;100.00;95233.25;5011734;28;20072;-60
2021/08/11 02:14:59;;;;;;;6.00;3.50;;;;;;;13.92;100.00;95233.31;5013153;28;20030;-60
2021/08/11 02:17:26;;;;;;;6.43;3.63;;;;;;;13.93;100.00;95232.22;5012958;28;20022;-60
2021/08/11 02:19:53;;;;;;;7.68;4.38;;;;;;;13.95;100.00;95234.63;5018499;28;20022;-60
2021/08/11 02:22:18;;;;;;;6.18;4.05;;;;;;;13.91;100.00;95226.34;5012887;28;20029;-60
2021/08/11 02:24:47;;;;;;;6.40;3.78;;;;;;;13.89;100.00;95218.53;5012431;28;20058;-60
2021/08/11 02:27:42;;;;;;;5.13;3.58;;;;;;;13.86;100.00;95216.38;5012839;28;20048;-60
2021/08/11 02:30:13;;;;;;;5.45;3.72;;;;;;;13.85;100.00;95212.09;5012880;28;20445;-60
2021/08/11 02:32:48;;;;;;;8.60;3.58;;;;;;;13.86;100.00;95213.69;5011518;28;20116;-60
2021/08/11 02:35:39;;;;;;;6.68;3.80;;;;;;;13.86;100.00;95213.69;5012754;28;20033;-60
2021/08/11 02:38:20;;;;;;;5.70;3.95;;;;;;;13.86;100.00;95207.50;5012866;28;20030;-60
2021/08/11 02:41:01;;;;;;;5.22;4.07;;;;;;;13.84;100.00;95207.00;5012762;28;20022;-60
2021/08/11 02:44:04;;;;;;;6.40;3.95;;;;;;;13.81;100.00;95204.88;5012661;28;20034;-60
2021/08/11 02:46:40;;;;;;;5.35;4.00;;;;;;;13.79;100.00;95201.66;5012635;28;20108;-60
2021/08/11 02:49:09;;;;;;;8.50;3.90;;;;;;;13.75;100.00;95206.78;5012453;28;20036;-60
2021/08/11 02:51:40;;;;;;;6.13;3.80;;;;;;;13.75;100.00;95195.22;5011237;28;20112;-60
2021/08/11 02:54:11;;;;;;;5.38;3.78;;;;;;;13.74;100.00;95194.41;5012690;28;20030;-60
2021/08/11 02:56:44;;;;;;;5.40;4.05;;;;;;;13.71;100.00;95184.22;5012680;28;20025;-60
2021/08/11 02:59:16;;;;;;;4.88;3.85;;;;;;;13.68;100.00;95184.78;5012633;28;20037;-60
2021/08/11 03:01:51;;;;;;;5.07;3.75;;;;;;;13.64;100.00;95181.84;5012298;28;20029;-60
2021/08/11 03:04:16;;;;;;;4.45;3.58;;;;;;;13.66;100.00;95194.22;5012393;28;20439;-60
2021/08/11 03:06:47;;;;;;;7.60;4.35;;;;;;;13.70;100.00;95195.28;5012487;28;20100;-60
2021/08/11 03:09:13;;;;;;;7.85;4.28;;;;;;;13.68;100.00;95189.38;5013771;28;20021;-60
2021/08/11 03:11:39;;;;;;;6.40;4.10;;;;;;;13.64;100.00;95178.34;5015268;28;20105;-60
2021/08/11 03:14:07;;;;;;;8.00;4.50;;;;;;;13.62;100.00;95175.13;5016245;28;20053;-60
2021/08/11 03:16:38;;;;;;;6.47;4.13;;;;;;;13.61;100.00;95171.66;5016190;28;20033;-60
2021/08/11 03:19:16;;;;;;;5.25;4.05;;;;;;;13.59;100.00;95170.31;5020617;28;20480;-60
2021/08/11 03:21:41;;;;;;;5.35;4.22;;;;;;;13.60;100.00;95166.56;5016270;28;20398;-60
2021/08/11 03:24:07;;;;;;;5.93;4.05;;;;;;;13.60;100.00;95177.31;5016113;28;20050;-60
2021/08/11 03:26:35;;;;;;;6.65;5.03;;;;;;;13.62;100.00;95180.53;5016218;28;20018;-60
2021/08/11 03:29:03;;;;;;;7.78;4.55;;;;;;;13.72;100.00;95172.38;5016006;28;20109;-59
2021/08/11 03:31:30;;;;;;;6.45;4.10;;;;;;;13.82;100.00;95166.91;5016118;28;20038;-59
2021/08/11 03:33:59;;;;;;;8.43;4.63;;;;;;;13.87;100.00;95157.97;5015918;28;20436;-59
2021/08/11 03:36:26;;;;;;;7.90;4.50;;;;;;;13.91;100.00;95165.19;5015935;28;20097;-59
2021/08/11 03:38:57;;;;;;;7.90;4.45;;;;;;;13.99;100.00;95166.47;5014968;28;20493;-60
2021/08/11 03:41:28;;;;;;;5.60;4.13;;;;;;;14.02;100.00;95157.03;5015881;28;20099;-59
2021/08/11 03:43:57;;;;;;;7.20;4.75;;;;;;;14.04;100.00;95150.25;5015844;28;20030;-60
2021/08/11 03:46:30;;;;;;;5.72;4.05;;;;;;;14.04;100.00;95141.38;5015733;28;20021;-60
2021/08/11 03:49:01;;;;;;;7.22;4.32;;;;;;;14.04;100.00;95120.63;5014864;28;20026;-60
2021/08/11 03:51:26;;;;;;;5.57;4.40;;;;;;;14.12;100.00;95124.59;5015585;28;20481;-59
2021/08/11 03:53:51;;;;;;;6.25;4.60;;;;;;;14.15;100.00;95124.03;5014341;28;20040;-60
2021/08/11 03:56:17;;;;;;;5.22;4.30;;;;;;;14.12;100.00;95127.31;5015530;28;20109;-60
2021/08/11 03:58:42;;;;;;;8.88;4.53;;;;;;;14.09;100.00;95134.03;5015657;28;20487;-60
2021/08/11 04:01:08;;;;;;;6.70;4.82;;;;;;;14.06;100.00;95129.22;5015540;28;20399;-60
2021/08/11 04:03:35;;;;;;;5.63;4.82;;;;;;;14.07;100.00;95133.53;5015474;28;20364;-60
2021/08/11 04:06:11;;;;;;;7.60;4.82;;;;;;;14.10;100.00;95130.25;5014114;28;20057;-60
2021/08/11 04:08:37;;;;;;;9.13;5.50;;;;;;;14.15;100.00;95130.22;5014222;28;20026;-60
2021/08/11 04:11:02;;;;;;;11.15;5.15;;;;;;;14.16;100.00;95123.75;5015262;28;20479;-60
2021/08/11 04:13:30;;;;;;;8.35;4.97;;;;;;;14.15;100.00;95116.75;5015281;28;20028;-60
2021/08/11 04:16:04;;;;;;;8.13;4.97;;;;;;;14.16;100.00;95120.25;5015190;28;20025;-60
2021/08/11 04:18:32;;;;;;;8.20;4.95;;;;;;;14.15;100.00;95124.03;5019547;28;20105;-60
2021/08/11 04:21:03;;;;;;;6.25;5.03;;;;;;;14.17;100.00;95119.16;5014798;28;20450;-60
2021/08/11 04:23:29;;;;;;;6.82;4.68;;;;;;;14.18;100.00;95109.97;5015217;28;20045;-53
2021/08/11 04:25:57;;;;;;;7.55;5.30;;;;;;;14.19;100.00;95106.19;5015032;28;20026;-56
2021/08/11 04:28:23;;;;;;;7.40;5.32;;;;;;;14.19;100.00;95103.50;5014909;28;20026;-57
2021/08/11 04:30:52;;;;;;;9.10;5.35;;;;;;;14.23;100.00;95103.75;5013560;28;20025;-58
2021/08/11 04:33:18;;;;;;;6.05;4.80;;;;;;;14.26;100.00;95097.78;5014227;28;20052;-58
2021/08/11 04:35:47;;;;;;;7.72;4.97;;;;;;;14.27;100.00;95092.09;5013608;28;20044;-58
2021/08/11 04:38:12;;;;;;;7.35;4.32;;;;;;;14.31;100.00;95095.00;5014674;28;20451;-56
2021/08/11 04:40:40;;;;;;;6.35;4.75;;;;;;;14.34;100.00;95094.47;5014670;28;20053;-51
2021/08/11 04:43:06;;;;;;;7.32;4.30;;;;;;;14.38;100.00;95107.06;5014493;28;20452;-53
2021/08/11 04:45:41;;;;;;;5.50;4.40;;;;;;;14.44;100.00;95115.91;5014685;28;20105;-50
2021/08/11 04:48:09;;;;;;;5.72;4.40;;;;;;;14.46;100.00;95098.38;5013020;28;20500;-55
2021/08/11 04:50:35;;;;;;;6.45;4.95;;;;;;;14.49;100.00;95097.00;5014499;28;20026;-54
2021/08/11 04:53:16;;;;;;;6.57;5.18;;;;;;;14.53;100.00;95099.91;5014216;28;20032;-55
2021/08/11 04:55:45;;;;;;;4.95;4.00;;;;;;;14.54;100.00;95096.09;5013318;28;20026;-54
2021/08/11 04:58:17;;;;;;;6.65;4.85;;;;;;;14.52;100.00;95095.59;5014179;28;20026;-54
2021/08/11 05:00:45;;;;;;;8.90;4.63;;;;;;;14.52;100.00;95101.78;5014100;28;20071;-56
2021/08/11 05:03:16;;;;;;;6.43;4.93;;;;;;;14.55;100.00;95098.53;5014075;28;20038;-57
2021/08/11 05:05:44;;;;;;;7.57;4.40;;;;;;;14.58;100.00;95094.47;5012812;28;20026;-58
2021/08/11 05:08:11;;;;;;;7.20;4.97;;;;;;;14.62;100.00;95098.16;5014075;28;20472;-56
2021/08/11 05:10:39;;;;;;;6.90;4.70;;;;;;;14.67;100.00;95098.13;5014033;28;20088;-58
2021/08/11 05:13:08;;;;;;;7.82;5.03;;;;;;;14.73;100.00;95102.31;5013880;28;20084;-58
2021/08/11 05:15:39;;;;;;;8.18;4.95;;;;;;;14.80;100.00;95100.09;5013924;28;20021;-58
2021/08/11 05:18:08;;;;;;;7.10;5.03;;;;;;;14.96;100.00;95096.06;5015466;28;20083;-58
2021/08/11 05:20:33;;;;;;;7.53;5.60;;;;;;;15.15;100.00;95101.47;5016215;28;20026;-57
2021/08/11 05:22:58;;;;;;;8.48;5.68;;;;;;;15.37;100.00;95092.75;5013686;28;20383;-58
2021/08/11 05:25:24;;;;;;;8.60;5.82;;;;;;;15.59;100.00;95094.84;5012473;28;20092;-59
2021/08/11 05:27:51;;;;;;;9.43;5.63;;;;;;;15.77;100.00;95091.31;5012373;28;20546;-54
2021/08/11 05:30:19;;;;;;;6.88;5.22;;;;;;;15.92;100.00;95099.13;5010988;28;20041;-58
2021/08/11 05:32:44;;;;;;;8.02;5.85;;;;;;;16.11;100.00;95095.56;5000488;28;20034;-59
2021/08/11 05:35:12;;;;;;;6.90;5.00;;;;;;;16.25;100.00;95107.19;5012319;28;20029;-59
2021/08/11 05:37:39;;;;;;;7.30;5.25;;;;;;;16.41;100.00;95108.50;5012295;28;20026;-60
2021/08/11 05:40:11;;;;;;;5.78;4.68;;;;;;;16.54;100.00;95106.88;5013419;28;20550;-58
2021/08/11 05:42:37;;;;;;;9.25;4.97;;;;;;;16.63;100.00;95102.38;5013462;28;20064;-59
2021/08/11 05:45:08;;;;;;;5.50;4.47;;;;;;;16.68;100.00;95107.69;5013286;28;20065;-59
2021/08/11 05:47:37;;;;;;;5.47;4.28;;;;;;;16.77;100.00;95107.78;5013296;28;20370;-60
2021/08/11 05:50:08;;;;;;;5.95;4.25;;;;;;;16.74;100.00;95106.50;5013305;28;20061;-59
2021/08/11 05:52:36;;;;;;;6.03;4.38;;;;;;;16.71;100.00;95103.56;5013216;28;20053;-59
2021/08/11 05:55:07;;;;;;;10.90;5.57;;;;;;;16.66;100.00;95103.66;5013097;28;20384;-60
2021/08/11 05:57:40;;;;;;;7.78;4.55;;;;;;;16.67;100.00;95094.44;5013200;28;20026;-60
2021/08/11 06:00:16;;;;;;;7.13;4.75;;;;;;;16.72;100.00;95091.69;5012002;28;20480;-57
2021/08/11 06:02:44;;;;;;;7.22;4.70;;;;;;;16.88;100.00;95078.59;5012893;28;20112;-55
2021/08/11 06:05:13;;;;;;;8.50;4.88;;;;;;;17.05;100.00;95079.56;5011728;28;20113;-56
2021/08/11 06:07:39;;;;;;;6.80;5.13;;;;;;;17.23;100.00;95064.25;5012949;28;20080;-59
2021/08/11 06:10:05;;;;;;;5.53;4.90;;;;;;;17.53;100.00;95072.75;5013121;28;20479;-59
2021/08/11 06:12:31;;;;;;;6.78;4.70;;;;;;;17.79;100.00;95060.19;5012933;28;20172;-60
2021/08/11 06:14:57;;;;;;;9.15;4.75;;;;;;;18.09;100.00;95053.16;5012939;28;20701;-57
2021/08/11 06:17:22;;;;;;;7.75;4.60;;;;;;;18.30;100.00;95030.91;5013224;28;20376;-58
2021/08/11 06:19:48;;;;;;;5.88;4.30;;;;;;;18.62;100.00;95019.66;5017077;28;20105;-57
2021/08/11 06:22:23;;;;;;;7.20;4.53;;;;;;;18.88;100.00;95000.72;5012849;28;20026;-58
2021/08/11 06:24:51;;;;;;;7.40;4.65;;;;;;;19.06;100.00;94964.31;5012137;28;20049;-57
2021/08/11 06:27:16;;;;;;;7.45;4.50;;;;;;;19.15;100.00;94945.28;5011375;28;20502;-57
2021/08/11 06:29:44;;;;;;;5.55;4.28;;;;;;;19.16;100.00;94932.50;5012876;28;20101;-58
2021/08/11 06:32:12;;;;;;;7.47;5.07;;;;;;;19.33;100.00;94917.00;5012610;28;20034;-58
2021/08/11 06:34:49;;;;;;;5.90;4.75;;;;;;;19.42;100.00;94911.50;5012562;28;20029;-60
2021/08/11 06:37:14;;;;;;;6.82;4.68;;;;;;;19.66;100.00;94900.13;5000469;28;20050;-59
2021/08/11 06:39:40;;;;;;;8.07;4.78;;;;;;;19.87;100.00;94890.09;5012631;28;20109;-59
2021/08/11 06:42:05;;;;;;;6.30;4.50;;;;;;;20.05;100.00;94885.34;5012295;28;20487;-57
2021/08/11 06:44:31;;;;;;;6.30;4.57;;;;;;;20.27;100.00;94876.88;5010892;28;20044;-58
2021/08/11 06:47:06;;;;;;;6.97;4.95;;;;;;;20.52;100.00;94868.91;5011219;28;20038;-60
2021/08/11 06:49:32;;;;;;;7.82;4.25;;;;;;;20.73;100.00;94868.84;5011148;28;20080;-60
2021/08/11 06:51:57;;;;;;;5.30;4.22;;;;;;;20.92;100.00;94873.81;5011271;28;20025;-60
2021/08/11 06:54:22;;;;;;;11.15;4.65;;;;;;;21.09;100.00;94866.28;5012646;28;20041;-53
2021/08/11 06:56:51;;;;;;;4.93;4.25;;;;;;;21.05;100.00;94870.78;5012766;28;20053;-56
2021/08/11 06:59:16;;;;;;;8.57;4.95;;;;;;;21.16;100.00;94882.03;5012409;28;20486;-56
2021/08/11 07:01:47;;;;;;;8.10;4.40;;;;;;;21.47;100.00;94889.75;5012380;28;20078;-60
2021/08/11 07:04:12;;;;;;;6.13;4.75;;;;;;;21.60;100.00;94899.56;5012375;28;20053;-60
2021/08/11 07:06:43;;;;;;;8.55;4.10;;;;;;;21.91;100.00;94903.66;5012477;28;20152;-60
2021/08/11 07:09:11;;;;;;;6.93;4.43;;;;;;;22.08;100.00;94921.75;5012464;28;20022;-61
2021/08/11 07:11:43;;;;;;;6.60;4.20;;;;;;;22.33;100.00;94928.78;5012401;28;20064;-61
2021/08/11 07:14:08;;;;;;;7.38;4.32;;;;;;;22.41;100.00;94948.91;5012066;28;20370;-61
2021/08/11 07:16:39;;;;;;;7.43;4.25;;;;;;;22.57;100.00;94972.41;5012391;28;20049;-60
2021/08/11 07:19:14;;;;;;;9.05;4.38;;;;;;;22.78;100.00;94985.09;5016673;28;20018;-61
2021/08/11 07:21:39;;;;;;;6.97;4.57;;;;;;;22.97;100.00;95009.91;5012299;28;20100;-60
2021/08/11 07:24:05;;;;;;;7.07;4.50;;;;;;;23.15;100.00;95043.22;5011926;28;20133;-60
2021/08/11 07:26:32;;;;;;;6.35;3.80;;;;;;;23.18;100.00;95063.59;5012157;28;20057;-62
2021/08/11 07:29:04;;;;;;;8.20;4.18;;;;;;;23.38;100.00;95068.09;5012145;28;20022;-61
2021/08/11 07:31:38;;;;;;;5.75;4.10;;;;;;;23.45;100.00;95090.19;5012147;28;20037;-61
2021/08/11 07:34:06;;;;;;;5.85;4.22;;;;;;;23.47;100.00;95120.69;5012126;28;20029;-61
2021/08/11 07:36:31;;;;;;;8.57;4.68;;;;;;;23.54;100.00;95139.22;5012055;28;20419;-62
2021/08/11 07:38:57;;;;;;;4.55;3.78;;;;;;;23.77;100.00;95136.78;5012007;28;20036;-62
2021/08/11 07:41:30;;;;;;;7.00;4.45;;;;;;;24.08;100.00;95158.78;5012038;28;20030;-61
2021/08/11 07:43:59;;;;;;;5.43;4.05;;;;;;;24.34;100.00;95193.94;5010838;28;20038;-61
2021/08/11 07:46:32;;;;;;;6.00;4.35;;;;;;;24.54;100.00;95255.91;5010536;28;20339;-62
2021/08/11 07:49:02;;;;;;;5.45;4.10;;;;;;;24.79;100.00;95264.78;5011936;28;20125;-61
2021/08/11 07:51:28;;;;;;;6.00;4.40;;;;;;;24.94;100.00;95292.56;5010595;28;20030;-62
2021/08/11 07:53:56;;;;;;;6.35;4.15;;;;;;;25.03;100.00;95334.34;5011025;28;20100;-60
2021/08/11 07:56:22;;;;;;;6.03;4.47;;;;;;;25.10;100.00;95343.56;5015577;28;20383;-61
2021/08/11 07:58:54;;;;;;;9.18;4.57;;;;;;;25.10;100.00;95334.53;5014135;28;20034;-59
2021/08/11 08:01:22;;;;;;;6.70;4.20;;;;;;;25.22;100.00;95328.97;5014193;28;20029;-60
2021/08/11 08:03:57;;;;;;;17.70;4.57;;;;;;;25.31;100.00;95315.91;5015148;28;20488;-58
2021/08/11 08:06:25;;;;;;;9.20;4.20;;;;;;;25.41;100.00;95320.06;5015224;28;20404;-56
2021/08/11 08:08:54;;;;;;;7.13;4.05;;;;;;;25.61;100.00;95345.59;5015310;28;20380;-57
2021/08/11 08:11:22;;;;;;;12.10;4.63;;;;;;;25.88;100.00;95410.59;5015292;28;20022;-61
2021/08/11 08:13:50;;;;;;;5.28;3.95;;;;;;;25.99;100.00;95417.16;5015126;28;20037;-61
2021/08/11 08:16:16;;;;;;;5.40;3.92;;;;;;;26.00;100.00;95484.63;5015111;28;20029;-62
2021/08/11 08:18:45;;;;;;;5.53;3.80;;;;;;;26.03;100.00;95494.09;5020490;28;20419;-61
2021/08/11 08:21:16;;;;;;;5.57;4.03;;;;;;;26.26;100.00;95495.06;5015068;28;20546;-61
2021/08/11 08:23:42;;;;;;;7.60;4.10;;;;;;;26.34;100.00;95519.97;5014607;28;20524;-61
2021/08/11 08:26:07;;;;;;;5.55;3.90;;;;;;;26.57;100.00;95501.72;5013829;28;20026;-61
2021/08/11 08:28:33;;;;;;;6.95;4.03;;;;;;;26.71;100.00;95513.03;5014673;28;20033;-62
2021/08/11 08:31:00;;;;;;;5.13;4.03;;;;;;;26.84;100.00;95527.47;5014857;28;20353;-62
2021/08/11 08:33:32;;;;;;;5.93;3.83;;;;;;;27.01;100.00;95466.56;5014700;28;20034;-61
2021/08/11 08:35:57;;;;;;;6.18;4.20;;;;;;;27.08;100.00;95507.22;5014826;28;20030;-61
2021/08/11 08:38:22;;;;;;;5.38;4.05;;;;;;;27.29;100.00;95499.41;5013419;28;20014;-60
2021/08/11 08:40:48;;;;;;;6.25;4.40;;;;;;;27.41;100.00;95474.50;5013162;28;20037;-60
2021/08/11 08:43:14;;;;;;;11.15;4.32;;;;;;;27.53;100.00;95465.28;5014406;28;20018;-62
2021/08/11 08:45:44;;;;;;;5.43;4.30;;;;;;;27.45;100.00;95502.06;5014442;28;20033;-61
2021/08/11 08:48:10;;;;;;;6.13;4.53;;;;;;;27.52;100.00;95469.19;5010333;28;20048;-60
2021/08/11 08:50:36;;;;;;;5.40;4.22;;;;;;;27.49;100.00;95469.94;5011885;28;20112;-57
2021/08/11 08:53:03;;;;;;;4.68;4.05;;;;;;;27.63;100.00;95527.19;5011540;28;20034;-57
2021/08/11 08:55:32;;;;;;;8.27;4.70;;;;;;;27.43;100.00;95504.38;5010966;28;20030;-59
2021/08/11 08:57:58;;;;;;;5.80;4.43;;;;;;;27.51;100.00;95453.06;5009437;28;20028;-59
2021/08/11 09:00:25;;;;;;;6.18;4.25;;;;;;;27.67;100.00;95471.06;5011915;28;20022;-53
2021/08/11 09:02:51;;;;;;;5.20;3.90;;;;;;;27.61;100.00;95504.75;5012199;28;20022;-60
2021/08/11 09:05:17;;;;;;;6.45;4.50;;;;;;;27.62;100.00;95534.66;5012869;28;20032;-60
2021/08/11 09:07:44;;;;;;;10.00;5.35;;;;;;;27.65;100.00;95500.94;5011975;28;20025;-62
2021/08/11 09:10:17;;;;;;;5.15;4.65;;;;;;;27.91;100.00;95507.72;5011901;28;20021;-61
2021/08/11 09:12:44;;;;;;;6.50;4.22;;;;;;;28.00;100.00;95528.34;5010848;28;20021;-60
2021/08/11 09:15:29;;;;;;;5.18;4.28;;;;;;;28.10;100.00;95529.66;5012719;28;20026;-61
2021/08/11 09:17:57;;;;;;;5.88;4.82;;;;;;;28.44;100.00;95529.88;5002819;28;20524;-62
2021/08/11 09:20:27;;;;;;;7.25;4.97;;;;;;;28.52;100.00;95562.69;5017239;28;20021;-61
2021/08/11 09:22:56;;;;;;;7.13;5.15;;;;;;;28.74;100.00;95552.03;5013721;28;20026;-61
2021/08/11 09:25:23;;;;;;;5.63;4.90;;;;;;;28.99;100.00;95560.72;5013350;28;20050;-60
2021/08/11 09:27:55;;;;;;;7.60;5.15;;;;;;;29.26;100.00;95578.03;5013817;28;20049;-61
2021/08/11 09:30:22;;;;;;;7.40;5.03;;;;;;;29.11;100.00;95610.16;5013315;28;20542;-61
2021/08/11 09:32:59;;;;;;;8.23;5.05;;;;;;;28.96;100.00;95652.44;5013812;28;20037;-61
2021/08/11 09:35:39;;;;;;;7.70;4.88;;;;;;;28.80;100.00;95625.00;5013396;28;20383;-62
2021/08/11 09:38:12;;;;;;;8.35;4.75;;;;;;;29.01;100.00;95641.91;5013803;28;20021;-61
2021/08/11 09:40:42;;;;;;;7.55;5.35;;;;;;;29.12;100.00;95669.66;5013766;28;20068;-61
2021/08/11 09:43:11;;;;;;;8.82;4.95;;;;;;;29.35;100.00;95661.34;5012331;28;20129;-61
2021/08/11 09:45:56;;;;;;;5.80;4.70;;;;;;;29.56;100.00;95688.50;5013629;28;20025;-62
2021/08/11 09:48:46;;;;;;;7.78;5.57;;;;;;;29.47;100.00;95710.00;5013414;28;20390;-61
2021/08/11 09:51:11;;;;;;;6.68;4.93;;;;;;;29.05;100.00;95703.44;4996130;28;20065;-61
2021/08/11 09:53:38;;;;;;;7.20;5.72;;;;;;;29.32;100.00;95670.38;5013384;28;20057;-61
2021/08/11 09:56:11;;;;;;;8.13;5.03;;;;;;;29.70;100.00;95695.00;5012227;28;20022;-62
2021/08/11 09:58:39;;;;;;;6.20;5.60;;;;;;;29.84;100.00;95737.78;5013347;28;20539;-61
2021/08/11 10:01:17;;;;;;;7.85;5.50;;;;;;;29.65;100.00;95756.09;5012164;28;20026;-62
2021/08/11 10:04:06;;;;;;;6.95;5.15;;;;;;;29.57;100.00;95761.84;5012132;28;20557;-61
2021/08/11 10:06:41;;;;;;;9.55;5.57;;;;;;;29.39;100.00;95780.84;5000679;28;20036;-61
2021/08/11 10:09:25;;;;;;;9.25;4.95;;;;;;;29.64;100.00;95781.31;5013253;28;20122;-61
2021/08/11 10:11:59;;;;;;;6.97;5.40;;;;;;;29.86;100.00;95797.03;5011984;28;20029;-61
2021/08/11 10:14:29;;;;;;;6.05;4.90;;;;;;;30.24;100.00;95796.00;5013229;28;20029;-61
2021/08/11 10:16:59;;;;;;;7.75;5.05;;;;;;;30.40;100.00;95833.75;5012688;28;20022;-61
2021/08/11 10:19:28;;;;;;;7.07;5.15;;;;;;;30.83;100.00;95822.06;5018415;28;20057;-60
2021/08/11 10:21:59;;;;;;;7.78;5.90;;;;;;;31.19;98.08;95849.34;5012945;28;20112;-61
2021/08/11 10:24:28;;;;;;;6.57;5.20;;;;;;;31.33;99.46;95846.72;5012835;28;20061;-60
2021/08/11 10:26:54;;;;;;;6.13;5.05;;;;;;;31.52;95.07;95876.97;5012953;28;20083;-62
2021/08/11 10:29:20;;;;;;;8.55;5.38;;;;;;;31.15;96.65;95857.56;5012916;28;20032;-61
2021/08/11 10:31:47;;;;;;;7.05;5.15;;;;;;;31.23;94.82;95872.31;5011434;28;20120;-60
2021/08/11 10:34:13;;;;;;;6.75;5.97;;;;;;;31.52;89.80;95888.06;5012997;28;20018;-59
2021/08/11 10:36:44;;;;;;;6.38;5.28;;;;;;;31.87;90.28;95881.28;5012671;28;20025;-57
2021/08/11 10:39:17;;;;;;;8.20;6.00;;;;;;;31.78;92.27;95880.81;5012612;28;20029;-59
2021/08/11 10:41:44;;;;;;;6.13;5.32;;;;;;;32.22;94.09;95862.13;5012640;28;20052;-59
2021/08/11 10:44:25;;;;;;;6.22;5.60;;;;;;;32.50;91.35;95869.88;5012539;28;20100;-60
2021/08/11 10:46:54;;;;;;;5.77;5.17;;;;;;;32.22;89.87;95873.22;5011253;28;20037;-60
2021/08/11 10:49:21;;;;;;;8.05;6.47;;;;;;;32.28;85.36;95888.34;5011126;28;20037;-60
2021/08/11 10:51:48;;;;;;;7.63;6.15;;;;;;;32.42;80.58;95895.97;5011484;28;20029;-59
2021/08/11 10:54:14;;;;;;;6.95;5.65;;;;;;;32.54;75.87;95903.97;5011142;28;20101;-60
2021/08/11 10:56:43;;;;;;;8.35;6.40;;;;;;;32.82;79.50;95897.81;5011148;28;20026;-60
2021/08/11 10:59:28;;;;;;;8.05;6.55;;;;;;;32.76;79.77;95896.56;5012282;28;20449;-59
2021/08/11 11:01:55;;;;;;;8.70;6.90;;;;;;;32.87;80.08;95900.22;5011278;28;20476;-59
2021/08/11 11:04:43;;;;;;;9.00;7.03;;;;;;;32.71;80.06;95885.84;5012322;28;20088;-59
2021/08/11 11:07:08;;;;;;;10.45;8.05;;;;;;;32.95;75.43;95895.50;5011010;28;20169;-57
2021/08/11 11:09:41;;;;;;;8.85;7.10;;;;;;;33.16;79.89;95886.47;5012706;28;20116;-57
2021/08/11 11:12:15;;;;;;;9.00;7.72;;;;;;;32.95;74.70;95892.72;5012336;28;20106;-58
2021/08/11 11:14:49;;;;;;;8.40;7.22;;;;;;;32.80;79.64;95883.53;5012249;28;20057;-60
2021/08/11 11:17:15;;;;;;;9.23;6.75;;;;;;;33.08;80.57;95880.06;5012193;28;20102;-61
2021/08/11 11:20:03;;;;;;;9.85;7.32;;;;;;;33.00;75.97;95886.00;5017708;28;20045;-59
2021/08/11 11:22:47;;;;;;;9.18;8.07;;;;;;;32.67;75.23;95887.78;5025250;28;20038;-61
2021/08/11 11:25:15;;;;;;;9.18;7.72;;;;;;;32.07;81.02;95871.56;5022197;28;20504;-60
2021/08/11 11:27:40;;;;;;;9.38;7.90;;;;;;;31.84;77.58;95877.31;5007156;28;20105;-56
2021/08/11 11:30:08;;;;;;;9.48;8.45;;;;;;;31.86;75.32;95877.72;5011901;28;20030;-60
2021/08/11 11:32:35;;;;;;;8.27;7.00;;;;;;;31.91;79.84;95873.78;5012088;28;20033;-55
2021/08/11 11:35:20;;;;;;;10.02;7.72;;;;;;;32.18;80.29;95863.31;5013519;28;20042;-57
2021/08/11 11:38:05;;;;;;;7.93;7.13;;;;;;;32.43;78.91;95867.06;5030131;28;20026;-60
2021/08/11 11:40:31;;;;;;;8.80;7.90;;;;;;;32.88;78.65;95864.94;5011849;28;20072;-58
2021/08/11 11:43:41;;;;;;;10.23;8.32;;;;;;;33.36;70.67;95884.16;5013516;28;20476;-58
2021/08/11 11:46:07;;;;;;;11.48;10.27;;;;;;;33.66;63.18;95886.63;5011532;28;20049;-55